Time;durP1;ratioP1;P1;durP2;ratioP2;P2;SDS_P1;SDS_P2;PMS_P1;PMS_P2;Temp;Humidity;BMP_temperature;BMP_pressure;BME280_temperature;BME280_humidity;BME280_pressure;Samples;Min_cycle;Max_cycle;Signal;HPM_P1;HPM_P2
2022/05/18 00:01:46;;;;;;;3.65;2.75;;;;;;;23.84;47.39;99683.19;4129332;28;20237;-71
2022/05/18 00:03:48;;;;;;;4.23;3.20;;;;;;;23.32;47.90;99689.69;4132657;28;20244;-70
2022/05/18 00:05:51;;;;;;;7.70;3.33;;;;;;;23.34;48.17;99687.53;4127936;28;20239;-70
2022/05/18 00:07:52;;;;;;;5.53;2.90;;;;;;;23.52;47.71;99690.00;4130628;28;20246;-71
2022/05/18 00:09:54;;;;;;;4.28;3.40;;;;;;;23.53;47.25;99698.97;4128007;28;20271;-70
2022/05/18 00:11:56;;;;;;;5.45;3.10;;;;;;;23.18;48.34;99700.00;4134936;28;20289;-70
2022/05/18 00:13:57;;;;;;;4.97;3.10;;;;;;;23.31;47.96;99691.53;4133954;28;20234;-70
2022/05/18 00:15:59;;;;;;;5.75;3.65;;;;;;;23.22;48.10;99694.94;4128161;28;20888;-71
2022/05/18 00:18:01;;;;;;;5.97;3.92;;;;;;;23.06;48.49;99697.34;4137834;28;20252;-70
2022/05/18 00:20:04;;;;;;;6.20;3.50;;;;;;;23.26;48.14;99699.59;4133374;28;20261;-70
2022/05/18 00:22:05;;;;;;;4.45;3.42;;;;;;;23.68;47.60;99709.28;4135663;28;20226;-70
2022/05/18 00:24:08;;;;;;;3.33;3.00;;;;;;;23.57;47.55;99698.25;4130552;28;20230;-70
2022/05/18 00:26:09;;;;;;;4.93;3.50;;;;;;;22.66;49.42;99709.03;4131787;28;20703;-70
2022/05/18 00:28:11;;;;;;;5.70;3.08;;;;;;;22.76;48.92;99711.94;4124190;28;20229;-70
2022/05/18 00:30:15;;;;;;;5.20;3.50;;;;;;;22.90;49.07;99700.81;4132024;28;20226;-70
2022/05/18 00:32:17;;;;;;;5.88;3.30;;;;;;;23.30;48.13;99717.03;4132890;28;20237;-70
2022/05/18 00:34:19;;;;;;;5.97;3.33;;;;;;;23.04;48.29;99721.16;4133985;28;20241;-71
2022/05/18 00:36:21;;;;;;;7.47;3.50;;;;;;;23.33;47.90;99724.69;4131689;28;20241;-70
2022/05/18 00:38:23;;;;;;;4.82;3.53;;;;;;;23.50;47.86;99732.00;4133972;28;20303;-70
2022/05/18 00:40:25;;;;;;;6.43;3.65;;;;;;;23.46;47.80;99741.72;4133439;28;20249;-70
2022/05/18 00:42:27;;;;;;;4.57;3.50;;;;;;;22.56;49.70;99738.63;4133194;28;20623;-70
2022/05/18 00:44:29;;;;;;;4.32;3.10;;;;;;;23.03;48.62;99733.09;4140049;28;20237;-70
2022/05/18 00:46:31;;;;;;;5.80;3.45;;;;;;;23.00;48.46;99744.44;4131302;28;20233;-71
2022/05/18 00:48:33;;;;;;;5.75;3.42;;;;;;;23.30;48.29;99746.03;4134836;28;20658;-70
2022/05/18 00:50:37;;;;;;;6.07;3.65;;;;;;;23.31;48.01;99745.81;4139108;28;20241;-70
2022/05/18 00:52:44;;;;;;;4.18;3.50;;;;;;;23.18;48.24;99740.66;4132965;28;20236;-71
2022/05/18 00:54:49;;;;;;;6.63;3.78;;;;;;;21.96;50.42;99745.13;4149087;28;20883;-70
2022/05/18 00:56:53;;;;;;;4.38;3.50;;;;;;;22.71;49.25;99740.81;4130103;28;20234;-70
2022/05/18 00:59:03;;;;;;;5.50;3.50;;;;;;;22.81;49.01;99739.16;4131922;28;20608;-70
2022/05/18 01:01:06;;;;;;;9.17;3.27;;;;;;;22.46;49.73;99748.19;4129192;28;20287;-70
2022/05/18 01:03:32;;;;;;;5.30;3.55;;;;;;;22.25;50.60;99743.34;4125988;28;20666;-70
2022/05/18 01:05:37;;;;;;;6.78;3.58;;;;;;;21.91;50.93;99737.69;4132652;28;20889;-71
2022/05/18 01:07:45;;;;;;;5.80;3.50;;;;;;;22.46;50.09;99731.94;4131669;28;20233;-70
2022/05/18 01:09:48;;;;;;;5.45;3.10;;;;;;;22.90;49.07;99722.50;4133311;28;20706;-71
2022/05/18 01:11:50;;;;;;;6.68;3.83;;;;;;;23.09;48.33;99728.59;4127304;28;20296;-71
2022/05/18 01:13:52;;;;;;;4.55;3.25;;;;;;;23.01;48.49;99735.22;4131845;28;20242;-70
2022/05/18 01:15:55;;;;;;;8.35;4.07;;;;;;;21.56;51.50;99733.03;4131078;28;20237;-70
2022/05/18 01:17:58;;;;;;;4.53;3.38;;;;;;;21.62;51.33;99729.41;4145973;28;20316;-71
2022/05/18 01:20:04;;;;;;;5.88;3.92;;;;;;;21.55;51.92;99723.28;4126870;28;20295;-70
2022/05/18 01:22:24;;;;;;;5.35;3.70;;;;;;;22.31;50.56;99709.94;4137124;28;20543;-70
2022/05/18 01:24:41;;;;;;;5.32;3.88;;;;;;;21.83;51.49;99719.09;4126046;28;20230;-70
2022/05/18 01:26:47;;;;;;;5.80;4.20;;;;;;;20.62;54.25;99715.38;4130577;28;20245;-70
2022/05/18 01:28:56;;;;;;;8.30;4.53;;;;;;;21.05;52.77;99718.19;4130543;28;20272;-71
2022/05/18 01:30:58;;;;;;;4.47;3.50;;;;;;;21.33;52.10;99720.28;4134030;28;20233;-70
2022/05/18 01:33:05;;;;;;;9.23;4.50;;;;;;;20.90;53.10;99727.47;4130591;28;20285;-70
2022/05/18 01:35:08;;;;;;;4.70;3.70;;;;;;;20.61;54.07;99729.91;4130750;28;20284;-70
2022/05/18 01:37:11;;;;;;;6.00;4.20;;;;;;;20.35;55.13;99716.75;4128299;28;20245;-70
2022/05/18 01:39:59;;;;;;;8.33;4.33;;;;;;;19.84;55.75;99722.19;4129878;28;20292;-71
2022/05/18 01:42:07;;;;;;;5.93;4.40;;;;;;;21.18;52.95;99721.53;4124968;28;20261;-70
2022/05/18 01:44:08;;;;;;;5.60;3.90;;;;;;;20.79;52.63;99730.97;4129190;28;20659;-70
2022/05/18 01:46:14;;;;;;;7.33;4.03;;;;;;;21.34;52.58;99728.16;4128616;28;20276;-70
2022/05/18 01:48:18;;;;;;;6.00;3.83;;;;;;;21.94;51.12;99739.13;4129538;28;20241;-71
2022/05/18 01:50:27;;;;;;;6.77;3.90;;;;;;;21.64;52.05;99748.94;4133056;28;20237;-70
2022/05/18 01:52:29;;;;;;;6.17;4.13;;;;;;;22.03;50.72;99759.34;4134280;28;20240;-71
2022/05/18 01:54:36;;;;;;;9.03;4.47;;;;;;;22.00;51.00;99759.81;4129255;28;20233;-70
2022/05/18 01:56:38;;;;;;;5.47;4.37;;;;;;;22.26;49.97;99761.25;4125748;28;20288;-70
2022/05/18 01:58:40;;;;;;;8.20;4.40;;;;;;;21.87;50.99;99769.81;4128768;28;20233;-70
2022/05/18 02:00:44;;;;;;;8.60;5.00;;;;;;;22.07;50.56;99777.59;4126293;28;20664;-70
2022/05/18 02:02:46;;;;;;;8.57;5.40;;;;;;;21.89;50.53;99781.22;4134087;28;20275;-71
2022/05/18 02:04:48;;;;;;;7.63;4.33;;;;;;;21.68;51.19;99790.75;4130577;28;20241;-71
2022/05/18 02:06:49;;;;;;;6.23;4.30;;;;;;;21.28;51.85;99791.28;4133398;28;20853;-70
2022/05/18 02:08:51;;;;;;;6.33;4.47;;;;;;;21.33;51.82;99786.00;4132285;28;20238;-70
2022/05/18 02:10:53;;;;;;;8.27;4.00;;;;;;;21.10;52.61;99780.50;4128787;28;20291;-71
2022/05/18 02:12:54;;;;;;;6.87;4.00;;;;;;;20.41;54.36;99772.53;4131985;28;20234;-70
2022/05/18 02:14:56;;;;;;;5.97;4.30;;;;;;;21.19;52.20;99776.41;4132172;28;20236;-70
2022/05/18 02:16:59;;;;;;;7.00;4.40;;;;;;;20.84;52.80;99770.81;4131005;28;20238;-71
2022/05/18 02:19:00;;;;;;;4.30;3.80;;;;;;;20.37;54.42;99766.75;4131467;28;20265;-70
2022/05/18 02:21:04;;;;;;;7.07;4.10;;;;;;;20.65;53.37;99772.69;4132877;28;20236;-70
2022/05/18 02:23:06;;;;;;;5.13;3.70;;;;;;;21.36;52.02;99763.91;4130231;28;20234;-71
2022/05/18 02:25:08;;;;;;;6.40;4.07;;;;;;;21.58;51.33;99773.38;4128161;28;20238;-69
2022/05/18 02:27:10;;;;;;;5.37;3.87;;;;;;;22.01;50.49;99766.91;4127970;28;20238;-71
2022/05/18 02:29:12;;;;;;;5.93;4.07;;;;;;;21.87;50.85;99777.94;4130691;28;20645;-71
2022/05/18 02:31:14;;;;;;;5.13;3.97;;;;;;;21.90;50.66;99787.50;4126619;28;20752;-71
2022/05/18 03:14:10;;;;;;;7.43;4.60;;;;;;;20.38;53.38;99808.94;4125539;28;20229;-71
2022/05/18 03:16:12;;;;;;;6.27;4.47;;;;;;;20.32;53.33;99809.81;4130687;28;20217;-70
2022/05/18 03:18:14;;;;;;;5.63;4.37;;;;;;;20.75;52.42;99811.66;4130129;28;20659;-70
2022/05/18 03:39:50;;;;;;;5.87;4.33;;;;;;;19.83;54.22;99860.81;4106254;28;20257;-70
2022/05/18 03:41:52;;;;;;;8.17;4.77;;;;;;;20.44;53.67;99843.13;4108351;28;20289;-70
2022/05/18 03:43:55;;;;;;;6.53;4.50;;;;;;;20.27;53.33;99852.03;4125181;28;20237;-70
2022/05/18 03:45:59;;;;;;;7.00;4.50;;;;;;;20.73;52.67;99853.44;4132607;28;20248;-70
2022/05/18 03:48:01;;;;;;;5.83;4.33;;;;;;;20.34;53.16;99852.78;4117562;28;20289;-70
2022/05/18 03:50:04;;;;;;;7.10;4.70;;;;;;;20.48;53.09;99858.88;4108250;28;20230;-69
2022/05/18 03:52:06;;;;;;;7.23;5.27;;;;;;;20.47;53.25;99862.66;4111133;28;20234;-69
2022/05/18 03:57:32;;;;;;;5.40;4.83;;;;;;;20.22;53.80;99860.75;4138567;22;20244;-31
2022/05/18 03:59:34;;;;;;;7.77;5.00;;;;;;;20.55;52.94;99865.03;4182199;23;20228;-31
2022/05/18 04:01:35;;;;;;;5.73;4.47;;;;;;;20.22;53.66;99871.53;4172206;28;20239;-31
2022/05/18 04:03:40;;;;;;;6.63;4.47;;;;;;;19.68;55.02;99865.69;4174485;28;20235;-31
2022/05/18 04:05:42;;;;;;;7.13;4.73;;;;;;;20.13;53.62;99864.75;4177987;28;20262;-31
2022/05/18 04:07:44;;;;;;;13.53;5.40;;;;;;;20.33;53.06;99862.78;4173153;28;20590;-31
2022/05/18 04:09:47;;;;;;;6.50;4.87;;;;;;;20.38;53.10;99878.28;4170646;28;20306;-32
2022/05/18 04:11:49;;;;;;;7.67;4.53;;;;;;;20.34;53.23;99875.22;4171330;28;20240;-32
2022/05/18 04:13:51;;;;;;;5.47;4.83;;;;;;;19.92;54.03;99884.84;4172618;28;20231;-32
2022/05/18 04:15:54;;;;;;;6.10;4.90;;;;;;;19.65;54.76;99888.50;4172958;28;20239;-35
2022/05/18 04:17:58;;;;;;;5.80;5.20;;;;;;;19.71;54.91;99876.03;4172454;28;20224;-32
2022/05/18 04:20:00;;;;;;;7.90;5.50;;;;;;;19.52;55.09;99875.91;4168951;28;20235;-33
2022/05/18 04:22:02;;;;;;;5.80;5.07;;;;;;;19.49;55.31;99870.94;4170214;28;20231;-32
2022/05/18 04:24:04;;;;;;;8.17;5.10;;;;;;;19.03;56.55;99893.53;4173417;28;20228;-32
2022/05/18 04:26:07;;;;;;;6.27;4.73;;;;;;;19.07;56.72;99881.25;4168047;28;20595;-34
2022/05/18 04:28:13;;;;;;;6.63;5.10;;;;;;;18.79;57.44;99876.09;4170085;28;20232;-32
2022/05/18 04:30:18;;;;;;;7.53;5.30;;;;;;;19.33;56.10;99874.97;4174184;28;20247;-34
2022/05/18 04:32:20;;;;;;;8.03;5.40;;;;;;;19.25;56.46;99888.69;4173993;28;21149;-30
2022/05/18 04:34:22;;;;;;;5.90;4.90;;;;;;;18.46;57.56;99895.00;4173649;28;20239;-32
2022/05/18 04:36:24;;;;;;;8.40;5.33;;;;;;;18.00;58.96;99902.81;4168856;28;20247;-36
2022/05/18 04:38:26;;;;;;;7.00;5.37;;;;;;;19.48;55.61;99885.44;4170834;28;20754;-32
2022/05/18 04:40:29;;;;;;;6.50;5.03;;;;;;;18.87;57.38;99891.28;4169831;28;20259;-30
2022/05/18 04:42:31;;;;;;;7.10;5.17;;;;;;;19.35;56.17;99882.00;4174459;28;20243;-30
2022/05/18 04:44:33;;;;;;;7.77;5.37;;;;;;;18.37;58.56;99913.22;4170274;28;20259;-30
2022/05/18 04:46:35;;;;;;;7.97;4.93;;;;;;;18.92;57.55;99897.66;4172206;28;20236;-31
2022/05/18 04:48:37;;;;;;;7.20;5.50;;;;;;;19.38;56.13;99897.75;4171871;28;20246;-33
2022/05/18 04:50:39;;;;;;;9.23;5.20;;;;;;;19.98;55.18;99897.47;4172278;28;20759;-34
2022/05/18 04:52:41;;;;;;;7.57;5.03;;;;;;;20.07;54.57;99912.34;4169269;28;20231;-33
2022/05/18 04:54:43;;;;;;;7.77;5.03;;;;;;;19.81;55.46;99916.06;4171049;28;20244;-31
2022/05/18 04:56:45;;;;;;;7.40;5.60;;;;;;;20.12;54.70;99917.91;4170181;28;20249;-30
2022/05/18 04:58:46;;;;;;;7.30;4.73;;;;;;;20.34;54.11;99923.81;4168557;28;20283;-31
2022/05/18 05:00:57;;;;;;;9.70;5.10;;;;;;;19.78;55.75;99928.09;4170867;28;20777;-32
2022/05/18 05:02:59;;;;;;;6.57;4.70;;;;;;;19.93;55.29;99932.38;4171783;28;20251;-31
2022/05/18 05:05:04;;;;;;;7.50;5.33;;;;;;;19.74;55.53;99940.38;4173855;28;20870;-30
2022/05/18 05:07:06;;;;;;;12.93;5.70;;;;;;;19.77;55.12;99949.88;4172727;28;20241;-33
2022/05/18 05:09:08;;;;;;;6.90;4.67;;;;;;;19.77;55.42;99949.88;4173768;28;20243;-29
2022/05/18 05:11:10;;;;;;;6.77;4.70;;;;;;;20.25;54.75;99935.91;4169946;28;20232;-30
2022/05/18 05:13:11;;;;;;;7.30;5.30;;;;;;;20.94;53.47;99938.69;4169078;28;20235;-32
2022/05/18 05:15:14;;;;;;;5.77;4.40;;;;;;;20.90;53.15;99938.28;4173953;28;20227;-34
2022/05/18 05:17:16;;;;;;;6.13;5.00;;;;;;;20.85;53.15;99948.94;4173922;28;20230;-33
2022/05/18 05:19:17;;;;;;;5.63;4.93;;;;;;;21.31;52.38;99944.16;4165664;28;20232;-32
2022/05/18 05:21:20;;;;;;;6.33;5.07;;;;;;;21.29;52.28;99962.47;4166790;28;20861;-33
2022/05/18 05:23:24;;;;;;;6.37;5.00;;;;;;;21.63;51.56;99962.94;4173262;28;20243;-32
2022/05/18 05:25:25;;;;;;;7.80;5.20;;;;;;;21.25;52.38;99972.09;4172692;28;20237;-32
2022/05/18 05:27:27;;;;;;;7.10;5.90;;;;;;;21.92;51.21;99970.25;4168598;28;20635;-30
2022/05/18 05:29:29;;;;;;;7.40;5.30;;;;;;;21.41;52.15;99976.91;4171088;28;20606;-30
2022/05/18 05:31:31;;;;;;;6.97;5.37;;;;;;;21.91;51.52;99965.88;4169432;28;20727;-34
2022/05/18 05:33:34;;;;;;;6.37;4.97;;;;;;;21.58;51.96;99976.28;4170293;28;20252;-30
2022/05/18 05:35:36;;;;;;;6.40;4.60;;;;;;;21.36;52.34;99988.41;4172542;28;20232;-33
2022/05/18 05:37:38;;;;;;;7.00;4.70;;;;;;;21.53;52.36;99979.69;4171401;28;20640;-33
2022/05/18 05:39:41;;;;;;;6.10;4.77;;;;;;;21.77;51.82;99982.56;4173930;28;20266;-33
2022/05/18 05:41:42;;;;;;;8.30;5.10;;;;;;;22.07;51.24;99979.88;4172645;28;20656;-31
2022/05/18 05:43:44;;;;;;;6.50;4.83;;;;;;;22.27;50.86;99984.97;4166755;28;20231;-32
2022/05/18 05:46:01;;;;;;;6.30;4.57;;;;;;;22.04;51.64;99986.56;4170014;28;20862;-35
2022/05/18 05:48:08;;;;;;;7.00;4.50;;;;;;;22.42;51.03;99985.44;4162567;28;20654;-31
2022/05/18 05:50:09;;;;;;;7.07;4.70;;;;;;;22.31;51.76;99977.25;4170737;28;20231;-32
2022/05/18 05:52:11;;;;;;;5.57;4.40;;;;;;;22.42;51.32;99976.44;4168062;28;20270;-33
2022/05/18 05:54:13;;;;;;;6.60;4.50;;;;;;;22.40;50.94;99987.50;4170122;28;20647;-31
2022/05/18 05:56:15;;;;;;;5.47;4.18;;;;;;;22.84;50.55;99982.66;4168466;28;20660;-33
2022/05/18 05:58:18;;;;;;;5.38;4.85;;;;;;;22.90;50.42;99980.06;4168736;28;20656;-35
2022/05/18 06:00:21;;;;;;;8.80;4.60;;;;;;;22.97;50.10;99981.63;4175152;28;20822;-31
2022/05/18 06:02:23;;;;;;;5.83;4.30;;;;;;;22.99;49.82;99976.78;4169934;28;20282;-33
2022/05/18 06:04:25;;;;;;;7.30;4.80;;;;;;;23.51;48.87;99983.34;4162461;28;20237;-33
2022/05/18 06:06:27;;;;;;;7.30;4.17;;;;;;;23.52;48.75;99993.13;4171787;28;20231;-31
2022/05/18 06:08:33;;;;;;;6.35;4.68;;;;;;;23.38;48.85;99997.97;4166988;28;20310;-31
2022/05/18 06:10:35;;;;;;;7.87;4.73;;;;;;;23.14;49.53;99998.00;4173764;28;20238;-30
2022/05/18 06:12:38;;;;;;;6.13;4.43;;;;;;;22.79;50.79;99998.81;4170942;28;20236;-30
2022/05/18 06:14:43;;;;;;;6.83;4.43;;;;;;;23.39;49.51;99986.88;4166931;28;20276;-30
2022/05/18 06:16:48;;;;;;;9.70;5.03;;;;;;;23.11;49.91;99998.47;4171824;28;20247;-31
2022/05/18 06:18:50;;;;;;;7.57;4.43;;;;;;;23.66;48.97;99985.56;4168097;28;20244;-33
2022/05/18 06:20:53;;;;;;;4.87;4.20;;;;;;;22.79;51.07;99997.97;4168822;28;20317;-30
2022/05/18 06:22:57;;;;;;;6.77;4.00;;;;;;;23.19;49.58;99998.13;4171763;28;20235;-29
2022/05/18 06:24:59;;;;;;;7.70;4.10;;;;;;;23.42;49.35;99991.03;4170121;28;20232;-34
2022/05/18 06:27:00;;;;;;;5.05;3.85;;;;;;;22.83;50.47;99993.72;4168241;28;20294;-30
2022/05/18 06:29:05;;;;;;;5.40;4.00;;;;;;;23.54;49.15;99977.44;4166861;28;20240;-31
2022/05/18 06:31:07;;;;;;;9.95;4.35;;;;;;;23.14;49.75;99986.34;4172731;28;20228;-32
2022/05/18 06:33:10;;;;;;;4.28;3.85;;;;;;;23.22;49.56;99998.72;4172056;28;20713;-30
2022/05/18 06:35:11;;;;;;;6.00;4.18;;;;;;;23.67;48.43;99992.63;4170161;28;20396;-31
2022/05/18 06:37:13;;;;;;;5.38;3.80;;;;;;;23.74;48.89;99991.44;4172257;28;20578;-32
2022/05/18 06:39:18;;;;;;;4.65;4.00;;;;;;;23.93;48.65;99988.56;4169321;28;20728;-30
2022/05/18 06:41:22;;;;;;;8.30;4.22;;;;;;;23.53;49.62;99994.78;4165268;28;20237;-32
2022/05/18 06:43:24;;;;;;;8.10;3.58;;;;;;;23.42;49.73;100001.03;4166895;28;20783;-31
2022/05/18 06:45:26;;;;;;;5.30;3.78;;;;;;;23.60;49.60;99981.91;4164671;28;20236;-32
2022/05/18 06:47:27;;;;;;;7.75;4.00;;;;;;;23.43;50.08;99991.84;4164956;28;20649;-31
2022/05/18 06:49:29;;;;;;;4.45;3.90;;;;;;;23.20;50.60;99986.22;4161402;28;20228;-34
2022/05/18 06:51:35;;;;;;;6.45;3.65;;;;;;;23.63;49.70;99980.63;4167074;28;20289;-32
2022/05/18 06:53:37;;;;;;;6.47;4.00;;;;;;;23.79;49.41;99984.47;4166567;28;20232;-31
2022/05/18 06:55:39;;;;;;;5.85;3.90;;;;;;;23.92;48.62;99981.47;4169554;28;20289;-33
2022/05/18 06:58:01;;;;;;;5.70;3.50;;;;;;;23.89;49.27;99974.63;4168073;28;20277;-35
2022/05/18 07:00:04;;;;;;;8.55;4.00;;;;;;;23.80;49.85;99989.66;4171685;28;20232;-30
2022/05/18 07:02:07;;;;;;;6.32;3.70;;;;;;;24.09;49.01;99974.19;4165432;28;20243;-33
2022/05/18 07:04:12;;;;;;;5.60;3.80;;;;;;;23.73;49.46;99976.22;4171529;28;20228;-30
2022/05/18 07:06:17;;;;;;;8.15;3.55;;;;;;;24.03;49.31;99971.63;4170525;28;20246;-35
2022/05/18 07:08:19;;;;;;;6.55;3.60;;;;;;;24.07;48.85;99970.88;4167590;28;20240;-30
2022/05/18 07:10:21;;;;;;;4.85;3.45;;;;;;;24.24;49.18;99979.09;4170046;28;20243;-31
2022/05/18 07:12:23;;;;;;;6.63;3.90;;;;;;;23.99;49.71;99984.03;4170451;28;20239;-32
2022/05/18 07:14:28;;;;;;;6.10;4.38;;;;;;;24.46;48.35;99973.78;4170413;28;20236;-31
2022/05/18 07:16:29;;;;;;;4.97;3.90;;;;;;;24.23;48.32;99991.03;4168713;28;20652;-33
2022/05/18 07:18:33;;;;;;;4.70;3.47;;;;;;;24.42;48.57;99982.69;4169916;28;20242;-35
2022/05/18 07:20:35;;;;;;;6.57;3.95;;;;;;;24.33;48.36;99984.13;4176437;28;20238;-32
2022/05/18 07:22:37;;;;;;;6.32;3.58;;;;;;;24.40;48.82;99988.34;4174153;28;20232;-32
2022/05/18 07:24:38;;;;;;;5.82;3.85;;;;;;;24.56;47.50;99989.44;4174081;28;20242;-32
2022/05/18 07:26:41;;;;;;;5.55;3.55;;;;;;;24.71;48.58;99991.56;4170809;28;20709;-33
2022/05/18 07:28:44;;;;;;;5.40;3.72;;;;;;;24.58;47.86;99990.03;4170354;28;20777;-32
2022/05/18 07:30:46;;;;;;;6.90;3.53;;;;;;;24.42;48.22;99978.06;4171560;28;20243;-32
2022/05/18 07:32:48;;;;;;;4.78;3.55;;;;;;;24.47;48.59;99986.28;4168953;28;20266;-31
2022/05/18 07:34:50;;;;;;;5.50;3.67;;;;;;;24.15;49.22;99996.03;4172708;28;20236;-33
2022/05/18 07:36:53;;;;;;;7.20;4.22;;;;;;;24.18;49.28;99992.84;4173171;28;20831;-36
2022/05/18 07:38:55;;;;;;;6.90;3.42;;;;;;;25.41;47.45;99986.69;4172442;28;20242;-33
2022/05/18 07:40:58;;;;;;;9.02;3.80;;;;;;;24.95;47.06;100000.44;4170483;28;20940;-32
2022/05/18 07:43:01;;;;;;;5.97;3.75;;;;;;;24.94;47.12;99998.78;4167278;28;20239;-31
2022/05/18 07:45:03;;;;;;;4.57;3.75;;;;;;;25.00;46.76;100010.53;4173339;28;20260;-31
2022/05/18 07:47:06;;;;;;;6.65;3.65;;;;;;;25.42;46.00;100000.03;4166988;28;20540;-32
2022/05/18 07:49:08;;;;;;;5.03;3.35;;;;;;;25.57;46.57;100004.84;4173283;28;20286;-29
2022/05/18 07:51:10;;;;;;;8.70;3.70;;;;;;;24.31;48.29;100015.09;4170934;28;20239;-32
2022/05/18 07:53:12;;;;;;;5.13;3.55;;;;;;;24.26;48.55;100004.16;4171524;28;20274;-31
2022/05/18 07:55:14;;;;;;;4.78;3.67;;;;;;;25.27;46.82;99990.78;4175798;28;20231;-31
2022/05/18 07:57:17;;;;;;;5.97;3.85;;;;;;;25.24;46.96;99998.41;4170782;28;20224;-30
2022/05/18 07:59:19;;;;;;;5.90;3.63;;;;;;;25.88;46.39;100005.22;4171730;28;20717;-31
2022/05/18 08:01:21;;;;;;;6.68;3.42;;;;;;;25.72;47.43;99996.03;4167832;28;20235;-29
2022/05/18 08:03:23;;;;;;;9.43;3.70;;;;;;;25.20;47.75;99999.94;4167270;28;20311;-30
2022/05/18 08:05:25;;;;;;;5.82;3.50;;;;;;;25.44;47.19;100001.66;4171339;28;20232;-30
2022/05/18 08:07:27;;;;;;;4.70;3.58;;;;;;;25.22;47.85;99996.97;4169761;28;20655;-30
2022/05/18 08:09:28;;;;;;;4.22;3.55;;;;;;;26.51;45.29;99991.19;4170485;28;20244;-31
2022/05/18 08:16:12;;;;;;;7.47;3.58;;;;;;;26.57;45.88;99995.59;4167994;28;20227;-35
2022/05/18 08:18:15;;;;;;;4.75;3.38;;;;;;;25.44;47.45;99997.03;4185411;28;20227;-34
2022/05/18 08:20:23;;;;;;;5.40;3.78;;;;;;;26.58;45.94;99993.69;4168207;28;20248;-32
2022/05/18 08:22:25;;;;;;;5.50;3.90;;;;;;;26.24;46.56;100002.09;4166132;28;20302;-31
2022/05/18 08:24:27;;;;;;;4.55;3.40;;;;;;;26.07;46.55;100008.44;4170312;28;20305;-31
2022/05/18 08:26:32;;;;;;;5.28;3.80;;;;;;;26.46;45.33;99997.38;4171329;28;20697;-32
2022/05/18 08:28:35;;;;;;;9.10;3.50;;;;;;;26.52;46.57;99999.09;4172987;28;20731;-34
2022/05/18 08:30:39;;;;;;;4.13;3.20;;;;;;;26.43;46.32;100000.63;4168081;28;20262;-31
2022/05/18 08:32:41;;;;;;;6.90;3.40;;;;;;;26.48;46.35;99997.13;4173987;28;20256;-35
2022/05/18 08:34:42;;;;;;;5.60;3.58;;;;;;;26.34;46.00;99992.09;4170371;28;20259;-32
2022/05/18 08:36:44;;;;;;;5.05;4.00;;;;;;;26.50;46.14;100001.28;4173008;28;20289;-34
2022/05/18 08:38:46;;;;;;;6.47;3.40;;;;;;;26.91;46.41;99992.59;4171352;28;21000;-34
2022/05/18 08:40:54;;;;;;;5.30;3.40;;;;;;;26.81;45.64;100001.50;4168800;28;20738;-32
2022/05/18 08:42:58;;;;;;;5.03;3.75;;;;;;;26.39;46.08;99994.06;4168464;28;20234;-30
2022/05/18 08:45:02;;;;;;;5.55;3.60;;;;;;;26.90;45.84;99990.94;4173108;28;20228;-31
2022/05/18 08:47:19;;;;;;;4.70;3.70;;;;;;;27.07;45.17;99990.78;4173212;28;20232;-31
2022/05/18 08:49:42;;;;;;;4.65;3.63;;;;;;;27.43;45.10;99988.25;4169878;28;20615;-30
2022/05/18 08:52:01;;;;;;;6.50;3.60;;;;;;;27.20;44.90;99990.34;4167910;28;20246;-34
2022/05/18 08:54:22;;;;;;;9.32;3.75;;;;;;;26.82;45.11;99984.03;4170545;28;20228;-32
2022/05/18 08:56:33;;;;;;;4.88;3.40;;;;;;;27.12;43.80;99990.00;4171405;28;20385;-31
2022/05/18 08:58:41;;;;;;;6.72;3.30;;;;;;;27.20;42.61;99995.78;4168814;28;20285;-31
2022/05/18 09:00:48;;;;;;;7.80;3.70;;;;;;;27.12;43.94;99992.75;4170520;28;20249;-33
2022/05/18 09:02:59;;;;;;;6.38;3.30;;;;;;;27.41;43.21;99993.16;4172167;28;20242;-34
2022/05/18 09:05:22;;;;;;;5.53;3.50;;;;;;;27.63;42.62;99996.59;4171017;28;20716;-33
2022/05/18 09:07:33;;;;;;;6.20;3.22;;;;;;;26.75;43.59;99986.19;4169053;28;20402;-31
2022/05/18 09:10:13;;;;;;;8.13;3.45;;;;;;;27.00;43.57;99982.00;4172851;28;20236;-31
2022/05/18 09:12:15;;;;;;;4.82;3.00;;;;;;;26.70;43.91;99981.50;4169605;28;20346;-30
2022/05/18 09:14:20;;;;;;;6.93;3.08;;;;;;;27.36;43.69;99976.75;4170444;28;20259;-31
2022/05/18 09:16:44;;;;;;;7.72;3.92;;;;;;;26.45;44.36;99978.53;4170536;28;20631;-31
2022/05/18 09:19:13;;;;;;;5.07;3.17;;;;;;;28.04;42.65;99981.38;4166110;28;20893;-34
2022/05/18 09:21:23;;;;;;;3.88;3.40;;;;;;;27.76;43.10;99989.78;4172213;28;20601;-34
2022/05/18 09:24:03;;;;;;;5.10;3.08;;;;;;;27.75;42.35;99982.69;4168507;28;20654;-33
2022/05/18 09:26:17;;;;;;;7.82;3.30;;;;;;;28.02;42.85;99986.31;4143426;28;20707;-32
2022/05/18 09:28:49;;;;;;;4.78;3.20;;;;;;;28.13;42.64;99993.44;4172380;28;20232;-31
2022/05/18 09:30:59;;;;;;;4.82;3.25;;;;;;;27.33;42.84;99975.41;4167003;28;20236;-30
2022/05/18 09:33:19;;;;;;;7.82;3.33;;;;;;;26.51;43.58;99975.63;4170123;28;20219;-32
2022/05/18 09:35:24;;;;;;;3.92;2.92;;;;;;;28.28;41.55;99968.06;4168262;28;20667;-31
2022/05/18 09:37:36;;;;;;;4.45;2.95;;;;;;;27.39;40.45;99978.97;4173657;28;20228;-31
2022/05/18 09:39:45;;;;;;;8.52;2.92;;;;;;;27.70;41.47;99981.84;4171320;28;20259;-32
2022/05/18 09:41:54;;;;;;;6.50;2.70;;;;;;;28.61;41.06;99980.34;4168110;28;20779;-33
2022/05/18 09:44:27;;;;;;;5.80;3.17;;;;;;;28.40;41.32;99979.53;4170671;28;20239;-33
2022/05/18 09:46:30;;;;;;;6.22;2.90;;;;;;;28.53;40.96;99976.28;4162749;28;20266;-32
2022/05/18 09:48:44;;;;;;;8.38;3.10;;;;;;;28.53;39.08;99972.72;4173999;28;20814;-31
2022/05/18 09:50:48;;;;;;;5.03;2.83;;;;;;;29.06;40.58;99980.59;4167153;28;20247;-33
2022/05/18 09:52:51;;;;;;;5.55;2.67;;;;;;;28.30;40.12;99965.88;4170152;28;20243;-31
2022/05/18 09:54:58;;;;;;;5.00;2.80;;;;;;;28.87;41.10;99955.75;4174672;28;20237;-33
2022/05/18 09:57:22;;;;;;;4.55;3.08;;;;;;;28.88;39.98;99963.69;4169219;28;20717;-32
2022/05/18 09:59:36;;;;;;;6.30;2.88;;;;;;;28.87;39.71;99963.97;4169281;28;20752;-31
2022/05/18 10:08:46;;;;;;;5.72;2.97;;;;;;;29.08;37.71;99973.75;4169756;28;20236;-30
2022/05/18 10:10:55;;;;;;;3.65;2.45;;;;;;;29.19;38.43;99955.38;4173347;28;20743;-30
2022/05/18 10:13:03;;;;;;;4.28;2.55;;;;;;;28.37;37.62;99953.56;4171582;28;20278;-33
2022/05/18 10:15:25;;;;;;;3.95;2.22;;;;;;;29.74;37.46;99949.97;4173473;28;20298;-31
2022/05/18 10:17:36;;;;;;;3.72;2.10;;;;;;;29.13;36.15;99956.50;4168678;28;21100;-30
2022/05/18 10:19:49;;;;;;;4.75;2.58;;;;;;;29.55;37.20;99957.19;4172289;28;20240;-32
2022/05/18 10:21:57;;;;;;;3.25;2.55;;;;;;;29.55;37.26;99954.44;4167266;28;20243;-31
2022/05/18 10:24:04;;;;;;;6.15;2.45;;;;;;;29.83;36.28;99948.28;4169461;28;20235;-32
2022/05/18 10:26:20;;;;;;;3.55;2.30;;;;;;;30.17;37.49;99944.75;4169474;28;20236;-31
2022/05/18 10:28:26;;;;;;;4.38;2.25;;;;;;;29.73;35.57;99944.81;4169089;28;20297;-30
2022/05/18 10:30:32;;;;;;;3.33;2.08;;;;;;;29.81;34.92;99935.97;4171265;28;20238;-30
2022/05/18 10:32:54;;;;;;;4.38;2.33;;;;;;;29.55;36.60;99924.31;4168980;28;20229;-30
2022/05/18 10:34:57;;;;;;;2.55;1.83;;;;;;;29.85;36.45;99923.34;4172593;28;20273;-30
2022/05/18 10:37:01;;;;;;;3.50;2.33;;;;;;;29.86;36.72;99929.63;4167589;28;20838;-29
2022/05/18 10:39:04;;;;;;;3.72;2.15;;;;;;;29.80;36.54;99915.16;4170873;28;20242;-31
2022/05/18 10:41:09;;;;;;;3.90;2.17;;;;;;;29.76;35.52;99905.84;4169521;28;20236;-31
2022/05/18 10:43:28;;;;;;;3.10;2.10;;;;;;;29.84;36.48;99905.25;4169166;28;20235;-31
2022/05/18 10:45:55;;;;;;;3.80;2.15;;;;;;;30.14;35.77;99909.69;4168934;28;20242;-35
2022/05/18 10:48:05;;;;;;;5.18;2.60;;;;;;;29.78;37.24;99899.00;4171818;28;20307;-32
2022/05/18 10:50:23;;;;;;;5.50;2.53;;;;;;;29.67;35.79;99889.16;4160935;28;20617;-31
2022/05/18 10:52:30;;;;;;;5.32;2.25;;;;;;;30.24;36.83;99892.38;4173457;28;20243;-31
2022/05/18 10:54:33;;;;;;;4.72;2.30;;;;;;;30.91;36.33;99889.78;4153083;28;20235;-31
2022/05/18 10:56:35;;;;;;;5.47;2.28;;;;;;;30.05;35.86;99875.78;4185865;28;21002;-31
2022/05/18 10:58:45;;;;;;;3.90;2.10;;;;;;;30.32;35.92;99872.56;4161533;28;20244;-33
2022/05/18 11:03:38;;;;;;;4.30;2.50;;;;;;;29.98;37.39;99848.69;4165572;27;20607;-70
2022/05/18 11:05:48;;;;;;;3.15;2.30;;;;;;;30.61;37.31;99851.69;4140856;28;20670;-70
2022/05/18 11:07:49;;;;;;;3.42;2.40;;;;;;;30.64;36.84;99856.59;4136208;28;20765;-70
2022/05/18 11:09:51;;;;;;;4.85;2.63;;;;;;;30.83;35.91;99853.94;4116678;28;20237;-70